sensor_id;sensor_type;location;lat;lon;timestamp;temperature;humidity
2647;DHT22;1333;50.958;6.770;2022-08-24T00:00:06;20.90;99.90
2647;DHT22;1333;50.958;6.770;2022-08-24T00:02:32;20.90;99.90
2647;DHT22;1333;50.958;6.770;2022-08-24T00:04:58;20.90;99.90
2647;DHT22;1333;50.958;6.770;2022-08-24T00:07:23;20.90;99.90
2647;DHT22;1333;50.958;6.770;2022-08-24T00:09:49;20.90;99.90
2647;DHT22;1333;50.958;6.770;2022-08-24T00:12:15;20.90;99.90
2647;DHT22;1333;50.958;6.770;2022-08-24T00:14:41;20.80;99.90
2647;DHT22;1333;50.958;6.770;2022-08-24T00:17:07;20.80;99.90
2647;DHT22;1333;50.958;6.770;2022-08-24T00:19:32;20.70;99.90
2647;DHT22;1333;50.958;6.770;2022-08-24T00:21:58;20.70;99.90
2647;DHT22;1333;50.958;6.770;2022-08-24T00:24:25;20.70;99.90
2647;DHT22;1333;50.958;6.770;2022-08-24T00:26:52;20.60;99.90
2647;DHT22;1333;50.958;6.770;2022-08-24T00:29:19;20.60;99.90
2647;DHT22;1333;50.958;6.770;2022-08-24T00:31:45;20.60;99.90
2647;DHT22;1333;50.958;6.770;2022-08-24T00:34:11;20.50;99.90
2647;DHT22;1333;50.958;6.770;2022-08-24T00:36:38;20.50;99.90
2647;DHT22;1333;50.958;6.770;2022-08-24T00:39:05;20.50;99.90
2647;DHT22;1333;50.958;6.770;2022-08-24T00:41:31;20.50;99.90
2647;DHT22;1333;50.958;6.770;2022-08-24T00:43:58;20.50;99.90
2647;DHT22;1333;50.958;6.770;2022-08-24T00:46:29;20.50;99.90
2647;DHT22;1333;50.958;6.770;2022-08-24T00:49:02;20.50;99.90
2647;DHT22;1333;50.958;6.770;2022-08-24T00:52:06;20.50;99.90
2647;DHT22;1333;50.958;6.770;2022-08-24T00:54:25;20.50;99.90
2647;DHT22;1333;50.958;6.770;2022-08-24T00:56:55;20.40;99.90
2647;DHT22;1333;50.958;6.770;2022-08-24T00:59:26;20.40;99.90
2647;DHT22;1333;50.958;6.770;2022-08-24T01:01:55;20.40;99.90
2647;DHT22;1333;50.958;6.770;2022-08-24T01:04:26;20.40;99.90
2647;DHT22;1333;50.958;6.770;2022-08-24T01:06:54;20.30;99.90
2647;DHT22;1333;50.958;6.770;2022-08-24T01:09:20;20.30;99.90
2647;DHT22;1333;50.958;6.770;2022-08-24T01:11:46;20.30;99.90
2647;DHT22;1333;50.958;6.770;2022-08-24T01:14:12;20.30;99.90
2647;DHT22;1333;50.958;6.770;2022-08-24T01:16:38;20.30;99.90
2647;DHT22;1333;50.958;6.770;2022-08-24T01:19:37;20.20;99.90
2647;DHT22;1333;50.958;6.770;2022-08-24T01:22:15;20.20;99.90
2647;DHT22;1333;50.958;6.770;2022-08-24T01:24:45;20.10;99.90
2647;DHT22;1333;50.958;6.770;2022-08-24T01:27:12;20.00;99.90
2647;DHT22;1333;50.958;6.770;2022-08-24T01:29:40;20.00;99.90
2647;DHT22;1333;50.958;6.770;2022-08-24T01:32:06;19.90;99.90
2647;DHT22;1333;50.958;6.770;2022-08-24T01:34:33;19.90;99.90
2647;DHT22;1333;50.958;6.770;2022-08-24T01:36:58;19.90;99.90
2647;DHT22;1333;50.958;6.770;2022-08-24T01:39:45;19.90;99.90
2647;DHT22;1333;50.958;6.770;2022-08-24T01:42:11;19.90;99.90
2647;DHT22;1333;50.958;6.770;2022-08-24T01:44:40;19.80;99.90
2647;DHT22;1333;50.958;6.770;2022-08-24T01:47:08;19.70;99.90
2647;DHT22;1333;50.958;6.770;2022-08-24T01:49:37;19.70;99.90
2647;DHT22;1333;50.958;6.770;2022-08-24T01:52:06;19.80;99.90
2647;DHT22;1333;50.958;6.770;2022-08-24T01:54:32;19.70;99.90
2647;DHT22;1333;50.958;6.770;2022-08-24T01:56:59;19.70;99.90
2647;DHT22;1333;50.958;6.770;2022-08-24T01:59:25;19.60;99.90
2647;DHT22;1333;50.958;6.770;2022-08-24T02:01:54;19.60;99.90
2647;DHT22;1333;50.958;6.770;2022-08-24T02:04:20;19.50;99.90
2647;DHT22;1333;50.958;6.770;2022-08-24T02:06:46;19.50;99.90
2647;DHT22;1333;50.958;6.770;2022-08-24T02:09:12;19.50;99.90
2647;DHT22;1333;50.958;6.770;2022-08-24T02:11:38;19.50;99.90
2647;DHT22;1333;50.958;6.770;2022-08-24T02:14:04;19.50;99.90
2647;DHT22;1333;50.958;6.770;2022-08-24T02:16:30;19.40;99.90
2647;DHT22;1333;50.958;6.770;2022-08-24T02:18:57;19.40;99.90
2647;DHT22;1333;50.958;6.770;2022-08-24T02:21:23;19.30;99.90
2647;DHT22;1333;50.958;6.770;2022-08-24T02:23:49;19.30;99.90
2647;DHT22;1333;50.958;6.770;2022-08-24T02:26:15;19.30;99.90
2647;DHT22;1333;50.958;6.770;2022-08-24T02:28:41;19.30;99.90
2647;DHT22;1333;50.958;6.770;2022-08-24T02:31:10;19.20;99.90
2647;DHT22;1333;50.958;6.770;2022-08-24T02:33:37;19.20;99.90
2647;DHT22;1333;50.958;6.770;2022-08-24T02:36:04;19.20;99.90
2647;DHT22;1333;50.958;6.770;2022-08-24T02:38:30;19.20;99.90
2647;DHT22;1333;50.958;6.770;2022-08-24T02:40:56;19.20;99.90
2647;DHT22;1333;50.958;6.770;2022-08-24T02:43:22;19.10;99.90
2647;DHT22;1333;50.958;6.770;2022-08-24T02:45:49;19.10;99.90
2647;DHT22;1333;50.958;6.770;2022-08-24T02:48:15;19.10;99.90
2647;DHT22;1333;50.958;6.770;2022-08-24T02:50:44;19.10;99.90
2647;DHT22;1333;50.958;6.770;2022-08-24T02:53:12;19.00;99.90
2647;DHT22;1333;50.958;6.770;2022-08-24T02:55:38;19.00;99.90
2647;DHT22;1333;50.958;6.770;2022-08-24T02:58:05;19.00;99.90
2647;DHT22;1333;50.958;6.770;2022-08-24T03:00:31;19.00;99.90
2647;DHT22;1333;50.958;6.770;2022-08-24T03:02:57;19.00;99.90
2647;DHT22;1333;50.958;6.770;2022-08-24T03:05:23;18.90;99.90
2647;DHT22;1333;50.958;6.770;2022-08-24T03:07:49;18.90;99.90
2647;DHT22;1333;50.958;6.770;2022-08-24T03:10:14;18.90;99.90
2647;DHT22;1333;50.958;6.770;2022-08-24T03:12:40;18.80;99.90
2647;DHT22;1333;50.958;6.770;2022-08-24T03:15:09;18.80;99.90
2647;DHT22;1333;50.958;6.770;2022-08-24T03:17:36;18.80;99.90
2647;DHT22;1333;50.958;6.770;2022-08-24T03:20:04;18.80;99.90
2647;DHT22;1333;50.958;6.770;2022-08-24T03:22:30;18.80;99.90
2647;DHT22;1333;50.958;6.770;2022-08-24T03:24:55;18.70;99.90
2647;DHT22;1333;50.958;6.770;2022-08-24T03:27:21;18.60;99.90
2647;DHT22;1333;50.958;6.770;2022-08-24T03:29:47;18.60;99.90
2647;DHT22;1333;50.958;6.770;2022-08-24T03:32:13;18.60;99.90
2647;DHT22;1333;50.958;6.770;2022-08-24T03:34:38;18.50;99.90
2647;DHT22;1333;50.958;6.770;2022-08-24T03:37:04;18.50;99.90
2647;DHT22;1333;50.958;6.770;2022-08-24T03:39:30;18.40;99.90
2647;DHT22;1333;50.958;6.770;2022-08-24T03:41:56;18.50;99.90
2647;DHT22;1333;50.958;6.770;2022-08-24T03:44:22;18.40;99.90
2647;DHT22;1333;50.958;6.770;2022-08-24T03:46:50;18.40;99.90
2647;DHT22;1333;50.958;6.770;2022-08-24T03:49:16;18.40;99.90
2647;DHT22;1333;50.958;6.770;2022-08-24T03:51:41;18.40;99.90
2647;DHT22;1333;50.958;6.770;2022-08-24T03:54:08;18.30;99.90
2647;DHT22;1333;50.958;6.770;2022-08-24T03:56:33;18.30;99.90
2647;DHT22;1333;50.958;6.770;2022-08-24T03:58:59;18.20;99.90
2647;DHT22;1333;50.958;6.770;2022-08-24T04:01:25;18.20;99.90
2647;DHT22;1333;50.958;6.770;2022-08-24T04:03:51;18.20;99.90
2647;DHT22;1333;50.958;6.770;2022-08-24T04:06:20;18.20;99.90
2647;DHT22;1333;50.958;6.770;2022-08-24T04:08:45;18.10;99.90
2647;DHT22;1333;50.958;6.770;2022-08-24T04:11:13;18.10;99.90
2647;DHT22;1333;50.958;6.770;2022-08-24T04:13:38;18.00;99.90
2647;DHT22;1333;50.958;6.770;2022-08-24T04:16:10;18.00;99.90
2647;DHT22;1333;50.958;6.770;2022-08-24T04:18:37;17.90;99.90
2647;DHT22;1333;50.958;6.770;2022-08-24T04:21:02;17.90;99.90
2647;DHT22;1333;50.958;6.770;2022-08-24T04:23:29;17.90;99.90
2647;DHT22;1333;50.958;6.770;2022-08-24T04:26:02;17.90;99.90
2647;DHT22;1333;50.958;6.770;2022-08-24T04:28:29;17.90;99.90
2647;DHT22;1333;50.958;6.770;2022-08-24T04:30:55;17.90;99.90
2647;DHT22;1333;50.958;6.770;2022-08-24T04:33:22;17.90;99.90
2647;DHT22;1333;50.958;6.770;2022-08-24T04:35:48;17.90;99.90
2647;DHT22;1333;50.958;6.770;2022-08-24T04:38:18;17.90;99.90
2647;DHT22;1333;50.958;6.770;2022-08-24T04:40:45;17.90;99.90
2647;DHT22;1333;50.958;6.770;2022-08-24T04:43:11;17.90;99.90
2647;DHT22;1333;50.958;6.770;2022-08-24T04:45:41;18.00;99.90
2647;DHT22;1333;50.958;6.770;2022-08-24T04:48:07;17.90;99.90
2647;DHT22;1333;50.958;6.770;2022-08-24T04:50:34;17.90;99.90
2647;DHT22;1333;50.958;6.770;2022-08-24T04:53:00;18.00;99.90
2647;DHT22;1333;50.958;6.770;2022-08-24T04:55:26;18.00;99.90
2647;DHT22;1333;50.958;6.770;2022-08-24T04:57:51;18.00;99.90
2647;DHT22;1333;50.958;6.770;2022-08-24T05:00:17;17.90;99.90
2647;DHT22;1333;50.958;6.770;2022-08-24T05:02:43;17.90;99.90
2647;DHT22;1333;50.958;6.770;2022-08-24T05:05:09;17.90;99.90
2647;DHT22;1333;50.958;6.770;2022-08-24T05:07:35;17.90;99.90
2647;DHT22;1333;50.958;6.770;2022-08-24T05:10:02;17.90;99.90
2647;DHT22;1333;50.958;6.770;2022-08-24T05:12:28;17.90;99.90
2647;DHT22;1333;50.958;6.770;2022-08-24T05:14:53;18.00;99.90
2647;DHT22;1333;50.958;6.770;2022-08-24T05:17:19;18.00;99.90
2647;DHT22;1333;50.958;6.770;2022-08-24T05:19:45;18.10;99.90
2647;DHT22;1333;50.958;6.770;2022-08-24T05:22:11;18.10;99.90
2647;DHT22;1333;50.958;6.770;2022-08-24T05:24:36;18.20;99.90
2647;DHT22;1333;50.958;6.770;2022-08-24T05:27:02;18.20;99.90
2647;DHT22;1333;50.958;6.770;2022-08-24T05:29:28;18.20;99.90
2647;DHT22;1333;50.958;6.770;2022-08-24T05:31:54;18.30;99.90
2647;DHT22;1333;50.958;6.770;2022-08-24T05:34:19;18.30;99.90
2647;DHT22;1333;50.958;6.770;2022-08-24T05:36:45;18.40;99.90
2647;DHT22;1333;50.958;6.770;2022-08-24T05:39:12;18.40;99.90
2647;DHT22;1333;50.958;6.770;2022-08-24T05:41:39;18.60;99.90
2647;DHT22;1333;50.958;6.770;2022-08-24T05:44:06;18.70;99.90
2647;DHT22;1333;50.958;6.770;2022-08-24T05:46:31;19.00;99.90
2647;DHT22;1333;50.958;6.770;2022-08-24T05:48:57;19.30;99.90
2647;DHT22;1333;50.958;6.770;2022-08-24T05:51:23;19.70;99.90
2647;DHT22;1333;50.958;6.770;2022-08-24T05:53:49;20.10;99.90
2647;DHT22;1333;50.958;6.770;2022-08-24T05:56:16;20.60;99.90
2647;DHT22;1333;50.958;6.770;2022-08-24T05:58:43;21.00;99.90
2647;DHT22;1333;50.958;6.770;2022-08-24T06:01:12;21.50;99.90
2647;DHT22;1333;50.958;6.770;2022-08-24T06:03:38;21.90;99.90
2647;DHT22;1333;50.958;6.770;2022-08-24T06:06:05;22.40;99.90
2647;DHT22;1333;50.958;6.770;2022-08-24T06:08:37;22.90;99.90
2647;DHT22;1333;50.958;6.770;2022-08-24T06:11:03;23.40;99.90
2647;DHT22;1333;50.958;6.770;2022-08-24T06:13:30;23.90;99.90
2647;DHT22;1333;50.958;6.770;2022-08-24T06:16:08;24.50;99.90
2647;DHT22;1333;50.958;6.770;2022-08-24T06:18:34;25.00;99.90
2647;DHT22;1333;50.958;6.770;2022-08-24T06:21:07;25.40;99.90
2647;DHT22;1333;50.958;6.770;2022-08-24T06:23:34;25.90;99.90
2647;DHT22;1333;50.958;6.770;2022-08-24T06:26:01;26.40;99.90
2647;DHT22;1333;50.958;6.770;2022-08-24T06:28:45;26.80;99.90
2647;DHT22;1333;50.958;6.770;2022-08-24T06:31:11;27.20;99.90
2647;DHT22;1333;50.958;6.770;2022-08-24T06:33:36;27.50;99.90
2647;DHT22;1333;50.958;6.770;2022-08-24T06:36:02;27.90;99.90
2647;DHT22;1333;50.958;6.770;2022-08-24T06:38:27;28.40;99.90
2647;DHT22;1333;50.958;6.770;2022-08-24T06:40:55;28.70;99.90
2647;DHT22;1333;50.958;6.770;2022-08-24T06:43:20;29.10;97.90
2647;DHT22;1333;50.958;6.770;2022-08-24T06:45:46;29.60;95.00
2647;DHT22;1333;50.958;6.770;2022-08-24T06:48:12;30.20;91.40
2647;DHT22;1333;50.958;6.770;2022-08-24T06:50:38;30.40;89.30
2647;DHT22;1333;50.958;6.770;2022-08-24T06:53:04;30.70;84.70
2647;DHT22;1333;50.958;6.770;2022-08-24T06:55:29;30.90;82.60
2647;DHT22;1333;50.958;6.770;2022-08-24T06:57:55;31.30;78.00
2647;DHT22;1333;50.958;6.770;2022-08-24T07:00:21;31.10;76.30
2647;DHT22;1333;50.958;6.770;2022-08-24T07:02:47;30.90;75.70
2647;DHT22;1333;50.958;6.770;2022-08-24T07:05:12;30.70;75.50
2647;DHT22;1333;50.958;6.770;2022-08-24T07:07:38;30.70;77.90
2647;DHT22;1333;50.958;6.770;2022-08-24T07:10:05;31.20;74.40
2647;DHT22;1333;50.958;6.770;2022-08-24T07:12:32;31.60;74.10
2647;DHT22;1333;50.958;6.770;2022-08-24T07:14:58;32.40;70.90
2647;DHT22;1333;50.958;6.770;2022-08-24T07:17:24;32.90;68.30
2647;DHT22;1333;50.958;6.770;2022-08-24T07:19:49;33.70;64.70
2647;DHT22;1333;50.958;6.770;2022-08-24T07:22:15;34.10;62.00
2647;DHT22;1333;50.958;6.770;2022-08-24T07:24:41;34.90;57.80
2647;DHT22;1333;50.958;6.770;2022-08-24T07:27:06;35.80;55.60
2647;DHT22;1333;50.958;6.770;2022-08-24T07:29:32;35.80;55.60
2647;DHT22;1333;50.958;6.770;2022-08-24T07:31:58;36.20;54.20
2647;DHT22;1333;50.958;6.770;2022-08-24T07:34:24;36.60;51.70
2647;DHT22;1333;50.958;6.770;2022-08-24T07:36:50;36.60;51.40
2647;DHT22;1333;50.958;6.770;2022-08-24T07:39:16;36.30;50.30
2647;DHT22;1333;50.958;6.770;2022-08-24T07:41:43;35.70;49.90
2647;DHT22;1333;50.958;6.770;2022-08-24T07:44:10;35.00;51.60
2647;DHT22;1333;50.958;6.770;2022-08-24T07:46:37;34.80;51.60
2647;DHT22;1333;50.958;6.770;2022-08-24T07:49:04;34.60;53.20
2647;DHT22;1333;50.958;6.770;2022-08-24T07:51:30;34.70;53.10
2647;DHT22;1333;50.958;6.770;2022-08-24T07:53:56;34.40;54.50
2647;DHT22;1333;50.958;6.770;2022-08-24T07:56:22;34.10;54.50
2647;DHT22;1333;50.958;6.770;2022-08-24T07:58:47;33.70;53.10
2647;DHT22;1333;50.958;6.770;2022-08-24T08:01:13;33.10;53.30
2647;DHT22;1333;50.958;6.770;2022-08-24T08:03:38;32.50;53.90
2647;DHT22;1333;50.958;6.770;2022-08-24T08:06:06;32.00;56.50
2647;DHT22;1333;50.958;6.770;2022-08-24T08:08:37;31.50;57.70
2647;DHT22;1333;50.958;6.770;2022-08-24T08:11:04;31.20;61.60
2647;DHT22;1333;50.958;6.770;2022-08-24T08:13:31;30.90;62.60
2647;DHT22;1333;50.958;6.770;2022-08-24T08:15:57;30.70;63.90
2647;DHT22;1333;50.958;6.770;2022-08-24T08:18:24;30.70;68.60
2647;DHT22;1333;50.958;6.770;2022-08-24T08:20:49;30.90;66.30
2647;DHT22;1333;50.958;6.770;2022-08-24T08:23:15;31.20;64.30
2647;DHT22;1333;50.958;6.770;2022-08-24T08:25:59;31.60;64.10
2647;DHT22;1333;50.958;6.770;2022-08-24T08:28:28;32.10;65.40
2647;DHT22;1333;50.958;6.770;2022-08-24T08:31:01;32.90;60.60
2647;DHT22;1333;50.958;6.770;2022-08-24T08:33:28;33.90;57.80
2647;DHT22;1333;50.958;6.770;2022-08-24T08:36:11;34.90;54.60
2647;DHT22;1333;50.958;6.770;2022-08-24T08:38:39;36.50;51.20
2647;DHT22;1333;50.958;6.770;2022-08-24T08:43:44;39.10;48.10
2647;DHT22;1333;50.958;6.770;2022-08-24T08:48:57;42.00;43.50
2647;DHT22;1333;50.958;6.770;2022-08-24T08:51:49;43.40;39.70
2647;DHT22;1333;50.958;6.770;2022-08-24T08:57:33;45.30;35.60
2647;DHT22;1333;50.958;6.770;2022-08-24T09:11:01;48.00;32.50
2647;DHT22;1333;50.958;6.770;2022-08-24T09:16:14;48.80;30.00
2647;DHT22;1333;50.958;6.770;2022-08-24T09:18:59;49.60;30.80
2647;DHT22;1333;50.958;6.770;2022-08-24T09:30:17;51.60;28.70
2647;DHT22;1333;50.958;6.770;2022-08-24T09:33:21;52.10;26.30
2647;DHT22;1333;50.958;6.770;2022-08-24T09:36:09;51.90;28.40
2647;DHT22;1333;50.958;6.770;2022-08-24T09:41:52;52.40;26.90
2647;DHT22;1333;50.958;6.770;2022-08-24T10:01:51;54.00;25.00
2647;DHT22;1333;50.958;6.770;2022-08-24T10:19:11;55.10;23.40
2647;DHT22;1333;50.958;6.770;2022-08-24T10:24:59;55.20;23.20
2647;DHT22;1333;50.958;6.770;2022-08-24T10:27:52;55.20;23.50
2647;DHT22;1333;50.958;6.770;2022-08-24T10:47:10;55.70;23.00
2647;DHT22;1333;50.958;6.770;2022-08-24T10:55:21;56.60;23.30
2647;DHT22;1333;50.958;6.770;2022-08-24T11:00:41;57.20;22.90
2647;DHT22;1333;50.958;6.770;2022-08-24T11:03:13;57.40;22.20
2647;DHT22;1333;50.958;6.770;2022-08-24T11:05:47;57.60;22.20
2647;DHT22;1333;50.958;6.770;2022-08-24T11:08:30;57.20;21.50
2647;DHT22;1333;50.958;6.770;2022-08-24T11:11:11;57.30;21.60
2647;DHT22;1333;50.958;6.770;2022-08-24T11:13:53;57.10;21.10
2647;DHT22;1333;50.958;6.770;2022-08-24T11:16:27;57.00;21.80
2647;DHT22;1333;50.958;6.770;2022-08-24T11:18:56;57.10;22.70
2647;DHT22;1333;50.958;6.770;2022-08-24T11:21:50;57.60;22.30
2647;DHT22;1333;50.958;6.770;2022-08-24T11:26:57;57.60;21.50
2647;DHT22;1333;50.958;6.770;2022-08-24T11:38:07;58.90;21.50
2647;DHT22;1333;50.958;6.770;2022-08-24T11:40:41;59.00;21.40
2647;DHT22;1333;50.958;6.770;2022-08-24T11:43:10;59.30;21.20
2647;DHT22;1333;50.958;6.770;2022-08-24T11:46:06;59.40;21.00
2647;DHT22;1333;50.958;6.770;2022-08-24T11:52:10;59.90;21.40
2647;DHT22;1333;50.958;6.770;2022-08-24T11:57:37;59.70;19.80
2647;DHT22;1333;50.958;6.770;2022-08-24T12:03:01;59.00;20.40
2647;DHT22;1333;50.958;6.770;2022-08-24T12:10:41;59.20;19.70
2647;DHT22;1333;50.958;6.770;2022-08-24T12:13:18;59.50;20.30
2647;DHT22;1333;50.958;6.770;2022-08-24T12:21:00;59.90;19.80
2647;DHT22;1333;50.958;6.770;2022-08-24T12:23:38;59.70;19.10
2647;DHT22;1333;50.958;6.770;2022-08-24T12:29:09;58.80;20.30
2647;DHT22;1333;50.958;6.770;2022-08-24T12:31:48;58.90;20.20
2647;DHT22;1333;50.958;6.770;2022-08-24T12:37:26;58.90;19.20
2647;DHT22;1333;50.958;6.770;2022-08-24T12:42:27;57.50;19.30
2647;DHT22;1333;50.958;6.770;2022-08-24T12:44:57;57.10;20.90
2647;DHT22;1333;50.958;6.770;2022-08-24T12:53:10;57.30;20.50
2647;DHT22;1333;50.958;6.770;2022-08-24T13:01:03;57.80;20.30
2647;DHT22;1333;50.958;6.770;2022-08-24T13:06:00;58.00;19.80
2647;DHT22;1333;50.958;6.770;2022-08-24T13:08:39;57.80;20.20
2647;DHT22;1333;50.958;6.770;2022-08-24T13:21:56;55.00;20.00
2647;DHT22;1333;50.958;6.770;2022-08-24T13:30:07;53.40;22.20
2647;DHT22;1333;50.958;6.770;2022-08-24T13:32:45;53.60;21.20
2647;DHT22;1333;50.958;6.770;2022-08-24T13:38:24;53.90;21.80
2647;DHT22;1333;50.958;6.770;2022-08-24T13:40:58;54.10;21.20
2647;DHT22;1333;50.958;6.770;2022-08-24T13:47:07;53.80;20.70
2647;DHT22;1333;50.958;6.770;2022-08-24T13:52:17;53.00;20.90
2647;DHT22;1333;50.958;6.770;2022-08-24T13:57:43;50.90;21.30
2647;DHT22;1333;50.958;6.770;2022-08-24T14:00:38;50.10;20.80
2647;DHT22;1333;50.958;6.770;2022-08-24T14:03:15;49.40;21.30
2647;DHT22;1333;50.958;6.770;2022-08-24T14:06:23;49.20;22.90
2647;DHT22;1333;50.958;6.770;2022-08-24T14:08:43;49.10;22.10
2647;DHT22;1333;50.958;6.770;2022-08-24T14:11:18;49.20;22.30
2647;DHT22;1333;50.958;6.770;2022-08-24T14:17:28;48.00;21.40
2647;DHT22;1333;50.958;6.770;2022-08-24T14:25:43;45.80;23.20
2647;DHT22;1333;50.958;6.770;2022-08-24T14:30:47;44.80;23.90
2647;DHT22;1333;50.958;6.770;2022-08-24T14:33:20;44.20;23.50
2647;DHT22;1333;50.958;6.770;2022-08-24T14:36:09;43.70;24.90
2647;DHT22;1333;50.958;6.770;2022-08-24T14:39:03;43.20;24.40
2647;DHT22;1333;50.958;6.770;2022-08-24T14:44:49;41.70;26.50
2647;DHT22;1333;50.958;6.770;2022-08-24T14:47:05;41.00;26.80
2647;DHT22;1333;50.958;6.770;2022-08-24T14:49:36;40.40;27.40
2647;DHT22;1333;50.958;6.770;2022-08-24T14:52:16;39.70;27.50
2647;DHT22;1333;50.958;6.770;2022-08-24T15:03:35;37.70;29.60
2647;DHT22;1333;50.958;6.770;2022-08-24T15:08:35;37.20;29.70
2647;DHT22;1333;50.958;6.770;2022-08-24T15:11:09;37.00;29.30
2647;DHT22;1333;50.958;6.770;2022-08-24T15:14:03;36.80;30.30
2647;DHT22;1333;50.958;6.770;2022-08-24T15:16:34;36.40;30.30
2647;DHT22;1333;50.958;6.770;2022-08-24T15:19:12;36.20;30.60
2647;DHT22;1333;50.958;6.770;2022-08-24T15:24:16;36.00;30.00
2647;DHT22;1333;50.958;6.770;2022-08-24T15:30:06;35.70;30.30
2647;DHT22;1333;50.958;6.770;2022-08-24T15:32:47;35.40;29.90
2647;DHT22;1333;50.958;6.770;2022-08-24T15:35:29;35.30;30.30
2647;DHT22;1333;50.958;6.770;2022-08-24T15:37:56;35.20;31.30
2647;DHT22;1333;50.958;6.770;2022-08-24T15:40:26;35.20;30.30
2647;DHT22;1333;50.958;6.770;2022-08-24T15:42:56;35.00;30.80
2647;DHT22;1333;50.958;6.770;2022-08-24T15:45:23;34.90;31.80
2647;DHT22;1333;50.958;6.770;2022-08-24T15:47:50;34.80;30.80
2647;DHT22;1333;50.958;6.770;2022-08-24T15:50:24;34.70;32.40
2647;DHT22;1333;50.958;6.770;2022-08-24T15:53:00;34.60;32.40
2647;DHT22;1333;50.958;6.770;2022-08-24T15:55:34;34.60;32.50
2647;DHT22;1333;50.958;6.770;2022-08-24T15:58:34;34.40;31.10
2647;DHT22;1333;50.958;6.770;2022-08-24T16:01:22;34.40;30.70
2647;DHT22;1333;50.958;6.770;2022-08-24T16:04:46;34.40;31.20
2647;DHT22;1333;50.958;6.770;2022-08-24T16:07:25;34.30;31.40
2647;DHT22;1333;50.958;6.770;2022-08-24T16:16:06;34.20;32.00
2647;DHT22;1333;50.958;6.770;2022-08-24T16:23:53;33.90;31.90
2647;DHT22;1333;50.958;6.770;2022-08-24T16:35:13;33.50;32.70
2647;DHT22;1333;50.958;6.770;2022-08-24T16:37:39;33.40;32.50
2647;DHT22;1333;50.958;6.770;2022-08-24T16:40:06;33.30;32.30
2647;DHT22;1333;50.958;6.770;2022-08-24T16:42:33;33.30;32.40
2647;DHT22;1333;50.958;6.770;2022-08-24T16:44:59;33.20;32.60
2647;DHT22;1333;50.958;6.770;2022-08-24T16:47:27;33.20;32.70
2647;DHT22;1333;50.958;6.770;2022-08-24T16:49:52;33.20;33.00
2647;DHT22;1333;50.958;6.770;2022-08-24T16:52:19;33.00;32.40
2647;DHT22;1333;50.958;6.770;2022-08-24T16:54:45;33.00;32.60
2647;DHT22;1333;50.958;6.770;2022-08-24T16:57:15;32.90;33.10
2647;DHT22;1333;50.958;6.770;2022-08-24T16:59:44;32.80;33.40
2647;DHT22;1333;50.958;6.770;2022-08-24T17:02:11;32.70;33.40
2647;DHT22;1333;50.958;6.770;2022-08-24T17:04:38;32.70;32.00
2647;DHT22;1333;50.958;6.770;2022-08-24T17:07:05;32.70;33.10
2647;DHT22;1333;50.958;6.770;2022-08-24T17:09:35;32.60;34.10
2647;DHT22;1333;50.958;6.770;2022-08-24T17:12:02;32.50;33.80
2647;DHT22;1333;50.958;6.770;2022-08-24T17:14:27;32.50;33.00
2647;DHT22;1333;50.958;6.770;2022-08-24T17:16:53;32.40;33.00
2647;DHT22;1333;50.958;6.770;2022-08-24T17:19:19;32.30;33.90
2647;DHT22;1333;50.958;6.770;2022-08-24T17:21:46;32.30;34.50
2647;DHT22;1333;50.958;6.770;2022-08-24T17:24:12;32.20;34.60
2647;DHT22;1333;50.958;6.770;2022-08-24T17:26:40;32.20;34.70
2647;DHT22;1333;50.958;6.770;2022-08-24T17:29:07;32.00;35.30
2647;DHT22;1333;50.958;6.770;2022-08-24T17:31:34;31.90;35.40
2647;DHT22;1333;50.958;6.770;2022-08-24T17:33:59;31.80;34.90
2647;DHT22;1333;50.958;6.770;2022-08-24T17:36:25;31.60;34.70
2647;DHT22;1333;50.958;6.770;2022-08-24T17:38:53;31.60;34.60
2647;DHT22;1333;50.958;6.770;2022-08-24T17:41:20;31.50;35.30
2647;DHT22;1333;50.958;6.770;2022-08-24T17:43:46;31.40;35.10
2647;DHT22;1333;50.958;6.770;2022-08-24T17:46:13;31.20;34.90
2647;DHT22;1333;50.958;6.770;2022-08-24T17:48:41;31.10;35.10
2647;DHT22;1333;50.958;6.770;2022-08-24T17:51:07;31.00;35.60
2647;DHT22;1333;50.958;6.770;2022-08-24T17:53:33;30.90;35.70
2647;DHT22;1333;50.958;6.770;2022-08-24T17:56:01;30.70;36.70
2647;DHT22;1333;50.958;6.770;2022-08-24T17:58:27;30.60;37.90
2647;DHT22;1333;50.958;6.770;2022-08-24T18:00:53;30.50;38.40
2647;DHT22;1333;50.958;6.770;2022-08-24T18:03:19;30.40;38.50
2647;DHT22;1333;50.958;6.770;2022-08-24T18:05:44;30.30;38.50
2647;DHT22;1333;50.958;6.770;2022-08-24T18:08:10;30.10;39.30
2647;DHT22;1333;50.958;6.770;2022-08-24T18:10:35;30.00;39.10
2647;DHT22;1333;50.958;6.770;2022-08-24T18:13:01;29.90;38.80
2647;DHT22;1333;50.958;6.770;2022-08-24T18:15:30;29.80;39.00
2647;DHT22;1333;50.958;6.770;2022-08-24T18:17:58;29.70;39.90
2647;DHT22;1333;50.958;6.770;2022-08-24T18:20:28;29.50;40.00
2647;DHT22;1333;50.958;6.770;2022-08-24T18:22:56;29.40;40.30
2647;DHT22;1333;50.958;6.770;2022-08-24T18:25:22;29.20;40.80
2647;DHT22;1333;50.958;6.770;2022-08-24T18:27:51;29.10;41.20
2647;DHT22;1333;50.958;6.770;2022-08-24T18:30:23;28.90;41.00
2647;DHT22;1333;50.958;6.770;2022-08-24T18:32:49;28.80;41.80
2647;DHT22;1333;50.958;6.770;2022-08-24T18:35:15;28.70;42.70
2647;DHT22;1333;50.958;6.770;2022-08-24T18:37:41;28.50;43.10
2647;DHT22;1333;50.958;6.770;2022-08-24T18:40:07;28.40;45.00
2647;DHT22;1333;50.958;6.770;2022-08-24T18:42:32;28.20;44.60
2647;DHT22;1333;50.958;6.770;2022-08-24T18:44:59;28.10;45.00
2647;DHT22;1333;50.958;6.770;2022-08-24T18:47:26;27.90;46.30
2647;DHT22;1333;50.958;6.770;2022-08-24T18:49:52;27.80;47.10
2647;DHT22;1333;50.958;6.770;2022-08-24T18:52:18;27.70;47.40
2647;DHT22;1333;50.958;6.770;2022-08-24T18:54:45;27.70;47.40
2647;DHT22;1333;50.958;6.770;2022-08-24T18:57:12;27.50;48.20
2647;DHT22;1333;50.958;6.770;2022-08-24T18:59:39;27.40;47.90
2647;DHT22;1333;50.958;6.770;2022-08-24T19:02:11;27.40;48.70
2647;DHT22;1333;50.958;6.770;2022-08-24T19:04:57;27.30;49.50
2647;DHT22;1333;50.958;6.770;2022-08-24T19:07:24;27.30;49.50
2647;DHT22;1333;50.958;6.770;2022-08-24T19:09:50;27.30;50.00
2647;DHT22;1333;50.958;6.770;2022-08-24T19:12:17;27.10;51.00
2647;DHT22;1333;50.958;6.770;2022-08-24T19:14:42;27.00;51.50
2647;DHT22;1333;50.958;6.770;2022-08-24T19:17:09;26.90;51.90
2647;DHT22;1333;50.958;6.770;2022-08-24T19:19:34;26.70;52.50
2647;DHT22;1333;50.958;6.770;2022-08-24T19:22:00;26.70;52.70
2647;DHT22;1333;50.958;6.770;2022-08-24T19:24:27;26.60;53.30
2647;DHT22;1333;50.958;6.770;2022-08-24T19:26:53;26.50;53.50
2647;DHT22;1333;50.958;6.770;2022-08-24T19:29:19;26.50;54.10
2647;DHT22;1333;50.958;6.770;2022-08-24T19:31:45;26.40;54.60
2647;DHT22;1333;50.958;6.770;2022-08-24T19:34:11;26.30;55.20
2647;DHT22;1333;50.958;6.770;2022-08-24T19:36:39;26.20;55.60
2647;DHT22;1333;50.958;6.770;2022-08-24T19:39:05;26.10;56.00
2647;DHT22;1333;50.958;6.770;2022-08-24T19:41:32;26.00;55.60
2647;DHT22;1333;50.958;6.770;2022-08-24T19:43:58;25.90;56.20
2647;DHT22;1333;50.958;6.770;2022-08-24T19:46:42;25.80;56.00
2647;DHT22;1333;50.958;6.770;2022-08-24T19:49:09;25.80;56.60
2647;DHT22;1333;50.958;6.770;2022-08-24T19:51:36;25.70;56.40
2647;DHT22;1333;50.958;6.770;2022-08-24T19:54:03;25.70;56.60
2647;DHT22;1333;50.958;6.770;2022-08-24T19:56:29;25.60;58.00
2647;DHT22;1333;50.958;6.770;2022-08-24T19:59:00;25.50;59.20
2647;DHT22;1333;50.958;6.770;2022-08-24T20:01:29;25.50;63.10
2647;DHT22;1333;50.958;6.770;2022-08-24T20:03:55;25.40;63.10